Time;durP1;ratioP1;P1;durP2;ratioP2;P2;SDS_P1;SDS_P2;PMS_P1;PMS_P2;Temp;Humidity;BMP_temperature;BMP_pressure;BME280_temperature;BME280_humidity;BME280_pressure;Samples;Min_cycle;Max_cycle;Signal;HPM_P1;HPM_P2
2021/08/09 00:03:11;;;;;;;8.10;2.40;;;;;14.20;100912.00;;;;9834643;30;20255;-78
2021/08/09 00:08:13;;;;;;;5.73;2.20;;;;;14.20;100927.00;;;;9834066;30;20201;-78
2021/08/09 00:13:15;;;;;;;8.47;2.43;;;;;14.20;100917.00;;;;9848381;30;20217;-78
2021/08/09 00:18:18;;;;;;;6.27;2.20;;;;;14.20;100926.00;;;;9848088;30;20215;-78
2021/08/09 00:23:20;;;;;;;12.33;2.50;;;;;14.20;100928.00;;;;9832988;30;20697;-77
2021/08/09 00:28:22;;;;;;;12.53;4.20;;;;;14.20;100915.00;;;;9818222;30;20679;-77
2021/08/09 00:33:24;;;;;;;9.67;2.73;;;;;14.10;100911.00;;;;9803838;30;20201;-77
2021/08/09 00:38:26;;;;;;;8.87;2.63;;;;;14.10;100904.00;;;;9818116;30;20229;-78
2021/08/09 00:43:29;;;;;;;8.90;3.37;;;;;14.00;100907.00;;;;9833672;30;20260;-76
2021/08/09 00:48:34;;;;;;;8.33;2.50;;;;;14.00;100901.00;;;;9833104;30;20209;-77
2021/08/09 00:53:38;;;;;;;6.30;2.67;;;;;14.00;100898.00;;;;9818901;30;20223;-76
2021/08/09 00:58:40;;;;;;;7.97;2.80;;;;;14.00;100898.00;;;;9817279;30;20209;-77
2021/08/09 01:03:43;;;;;;;10.80;2.77;;;;;14.00;100903.00;;;;9817390;30;20229;-77
2021/08/09 01:09:14;;;;;;;11.43;3.10;;;;;14.10;100903.00;;;;9818279;30;20270;-78
2021/08/09 01:15:01;;;;;;;7.10;2.77;;;;;14.20;100898.00;;;;9803669;30;20825;-78
2021/08/09 01:20:38;;;;;;;13.87;3.27;;;;;14.20;100903.00;;;;9817591;30;20215;-76
2021/08/09 01:25:57;;;;;;;13.43;3.00;;;;;14.30;100901.00;;;;9812262;30;20239;-78
2021/08/09 01:31:01;;;;;;;12.17;3.23;;;;;14.30;100905.00;;;;9818308;30;20320;-77
2021/08/09 01:36:08;;;;;;;6.97;3.00;;;;;14.40;100900.00;;;;9817385;30;20229;-77
2021/08/09 01:41:15;;;;;;;7.33;3.20;;;;;14.40;100903.00;;;;9819848;30;20209;-78
2021/08/09 01:46:18;;;;;;;10.03;3.40;;;;;14.40;100900.00;;;;9838821;30;20587;-78
2021/08/09 01:51:21;;;;;;;11.07;2.90;;;;;14.40;100909.00;;;;9824464;30;20232;-78
2021/08/09 01:56:23;;;;;;;9.00;3.63;;;;;14.40;100908.00;;;;9838086;30;20217;-78
2021/08/09 02:01:26;;;;;;;9.10;2.90;;;;;14.50;100912.00;;;;9823424;30;20572;-77
2021/08/09 02:06:29;;;;;;;8.77;2.87;;;;;14.50;100908.00;;;;9823068;30;20244;-78
2021/08/09 02:11:51;;;;;;;10.30;3.70;;;;;14.50;100911.00;;;;9837983;30;20292;-78
2021/08/09 02:17:04;;;;;;;8.87;3.07;;;;;14.50;100920.00;;;;9822022;30;20258;-78
2021/08/09 02:22:10;;;;;;;17.10;3.40;;;;;14.50;100920.00;;;;9822193;30;20285;-76
2021/08/09 02:27:17;;;;;;;10.10;3.60;;;;;14.50;100920.00;;;;9837721;30;20284;-77
2021/08/09 02:32:25;;;;;;;9.63;3.13;;;;;14.60;100918.00;;;;9822818;30;20209;-77
2021/08/09 02:37:29;;;;;;;10.97;3.53;;;;;14.60;100921.00;;;;9836671;30;20229;-77
2021/08/09 02:42:31;;;;;;;11.60;3.77;;;;;14.70;100919.00;;;;9822085;30;20225;-78
2021/08/09 02:47:37;;;;;;;8.13;3.47;;;;;14.70;100923.00;;;;9831189;30;20206;-78
2021/08/09 02:52:41;;;;;;;9.23;3.20;;;;;14.70;100910.00;;;;9771122;30;20766;-79
2021/08/09 02:57:45;;;;;;;7.23;3.20;;;;;14.70;100910.00;;;;9771496;30;20241;-79
2021/08/09 03:02:50;;;;;;;7.53;3.17;;;;;14.60;100909.00;;;;9771136;30;20236;-79
2021/08/09 03:07:53;;;;;;;11.10;3.47;;;;;14.60;100917.00;;;;9784810;30;20292;-80
2021/08/09 03:12:57;;;;;;;5.00;2.73;;;;;14.50;100921.00;;;;9784152;30;20780;-80
2021/08/09 03:18:02;;;;;;;10.47;3.30;;;;;14.50;100918.00;;;;9769816;30;20633;-80
2021/08/09 03:23:04;;;;;;;9.77;3.50;;;;;14.50;100922.00;;;;9784387;30;20255;-79
2021/08/09 03:28:07;;;;;;;9.60;3.80;;;;;14.50;100923.00;;;;9798941;30;20210;-79
2021/08/09 03:33:09;;;;;;;8.07;3.53;;;;;14.50;100927.00;;;;9770323;30;20313;-79
2021/08/09 03:38:11;;;;;;;8.93;3.20;;;;;14.40;100931.00;;;;9784348;30;20296;-79
2021/08/09 03:43:14;;;;;;;7.43;3.63;;;;;14.40;100936.00;;;;9813333;30;20230;-79
2021/08/09 03:48:17;;;;;;;11.07;3.37;;;;;14.40;100946.00;;;;9812946;30;20300;-79
2021/08/09 03:53:20;;;;;;;4.30;3.20;;;;;14.40;100929.00;;;;9820221;30;20225;-79
2021/08/09 03:58:22;;;;;;;9.50;3.73;;;;;14.40;100933.00;;;;9790788;30;20307;-79
2021/08/09 04:03:24;;;;;;;9.57;3.50;;;;;14.30;100938.00;;;;9819154;30;20746;-79
2021/08/09 04:08:27;;;;;;;5.50;3.20;;;;;14.30;100937.00;;;;9805420;30;20670;-79
2021/08/09 04:13:30;;;;;;;4.70;3.20;;;;;14.30;100948.00;;;;9834415;30;20197;-79
2021/08/09 04:18:32;;;;;;;7.77;3.33;;;;;14.40;100943.00;;;;9819484;30;20289;-78
2021/08/09 04:23:34;;;;;;;7.50;3.20;;;;;14.40;100948.00;;;;9819600;30;20279;-78
2021/08/09 04:28:36;;;;;;;4.30;2.83;;;;;14.40;100946.00;;;;9819443;30;20216;-79
2021/08/09 04:33:45;;;;;;;4.97;2.93;;;;;14.40;100938.00;;;;9862760;29;20672;-78
2021/08/09 04:38:48;;;;;;;4.73;3.03;;;;;14.40;100934.00;;;;9862490;29;20280;-78
2021/08/09 04:43:51;;;;;;;5.03;2.43;;;;;14.50;100927.00;;;;9862732;29;20238;-77
2021/08/09 04:48:55;;;;;;;8.90;3.33;;;;;14.60;100926.00;;;;9906845;29;20219;-78
2021/08/09 04:53:58;;;;;;;8.00;2.97;;;;;14.60;100922.00;;;;9891985;29;20676;-77
2021/08/09 04:59:01;;;;;;;5.17;2.80;;;;;14.70;100927.00;;;;9848337;29;20305;-78
2021/08/09 05:04:03;;;;;;;5.23;2.60;;;;;14.80;100933.00;;;;9810126;30;20338;-77
2021/08/09 05:09:05;;;;;;;6.83;3.00;;;;;14.90;100935.00;;;;9804322;30;20213;-78
2021/08/09 05:14:08;;;;;;;9.30;3.00;;;;;15.00;100933.00;;;;9818201;30;20307;-79
2021/08/09 05:19:12;;;;;;;6.57;2.70;;;;;15.00;100934.00;;;;9825006;30;20205;-79
2021/08/09 05:24:14;;;;;;;5.17;3.00;;;;;14.90;100932.00;;;;9825145;30;20844;-78
2021/08/09 05:29:16;;;;;;;4.30;2.70;;;;;14.90;100937.00;;;;9825320;30;20209;-78
2021/08/09 05:34:18;;;;;;;5.50;2.50;;;;;14.90;100940.00;;;;9829779;30;20216;-78
2021/08/09 05:39:20;;;;;;;3.30;2.30;;;;;15.00;100941.00;;;;9831919;30;20238;-77
2021/08/09 05:44:22;;;;;;;5.53;1.90;;;;;15.30;100937.00;;;;9875830;30;20840;-78
2021/08/09 05:49:24;;;;;;;6.80;2.80;;;;;15.80;100943.00;;;;9831511;30;20208;-78
2021/08/09 05:54:29;;;;;;;4.40;2.10;;;;;16.20;100948.00;;;;9859457;30;21226;-78
2021/08/09 05:59:32;;;;;;;6.73;2.23;;;;;16.50;100970.00;;;;9874642;30;20303;-78
2021/08/09 06:04:34;;;;;;;5.03;1.97;;;;;16.80;100966.00;;;;9845871;30;20232;-79
2021/08/09 06:09:36;;;;;;;3.53;2.03;;;;;17.10;100985.00;;;;9860553;30;20215;-78
2021/08/09 06:14:38;;;;;;;3.08;1.60;;;;;17.10;100985.00;;;;9831499;29;20210;-77
2021/08/09 06:19:41;;;;;;;4.00;2.00;;;;;17.00;100987.00;;;;9845765;29;20204;-78
2021/08/09 06:24:43;;;;;;;4.50;2.07;;;;;16.80;100988.00;;;;9859732;30;20255;-78
2021/08/09 06:29:45;;;;;;;5.07;1.70;;;;;16.80;100987.00;;;;9873938;30;20204;-77
2021/08/09 06:34:48;;;;;;;4.33;2.10;;;;;17.10;100996.00;;;;9845246;30;20247;-78
2021/08/09 06:39:52;;;;;;;4.50;1.70;;;;;17.80;101004.00;;;;9844662;30;20216;-78
2021/08/09 06:44:54;;;;;;;5.53;1.98;;;;;18.50;101016.00;;;;9874667;30;20601;-77
2021/08/09 06:49:56;;;;;;;7.47;1.95;;;;;18.70;101022.00;;;;9858670;30;20216;-76
2021/08/09 06:54:59;;;;;;;4.35;1.63;;;;;19.40;101014.00;;;;9859744;30;20212;-77
2021/08/09 07:00:06;;;;;;;7.13;1.60;;;;;19.40;101028.00;;;;9844165;30;20212;-77
2021/08/09 07:05:09;;;;;;;8.80;1.73;;;;;19.50;101028.00;;;;9844027;30;20220;-77
2021/08/09 07:10:13;;;;;;;5.45;1.70;;;;;19.90;101035.00;;;;9844032;30;20212;-77
2021/08/09 07:15:15;;;;;;;5.97;1.70;;;;;19.70;101033.00;;;;9858718;30;20227;-78
2021/08/09 07:20:19;;;;;;;5.57;1.38;;;;;19.60;101043.00;;;;9829433;30;20228;-77
2021/08/09 07:25:21;;;;;;;6.35;1.83;;;;;19.60;101036.00;;;;9842712;30;20720;-78
2021/08/09 07:30:24;;;;;;;3.35;1.60;;;;;19.70;101025.00;;;;9813787;30;20212;-77
2021/08/09 07:35:31;;;;;;;5.53;2.70;;;;;19.80;101035.00;;;;9873000;30;20783;-77
2021/08/09 07:40:33;;;;;;;4.90;1.98;;;;;19.90;101041.00;;;;9855477;30;20204;-77
2021/08/09 07:45:39;;;;;;;3.80;1.73;;;;;19.80;101031.00;;;;9843507;30;20240;-78
2021/08/09 07:50:43;;;;;;;5.13;1.70;;;;;19.80;101036.00;;;;9865025;30;20262;-77
2021/08/09 07:55:47;;;;;;;3.33;1.67;;;;;19.70;101032.00;;;;9842952;30;20569;-76
2021/08/09 08:00:51;;;;;;;4.38;2.00;;;;;20.00;101034.00;;;;9866010;30;20786;-78
2021/08/09 08:05:54;;;;;;;1.90;1.40;;;;;20.70;101022.00;;;;9870427;30;20231;-77
2021/08/09 08:10:58;;;;;;;3.40;1.55;;;;;21.20;101028.00;;;;9872139;30;20208;-77
2021/08/09 08:16:01;;;;;;;4.88;1.88;;;;;21.00;101036.00;;;;9822572;30;20227;-77
2021/08/09 08:21:03;;;;;;;4.60;1.63;;;;;20.60;101027.00;;;;9833022;30;20204;-77
2021/08/09 08:26:06;;;;;;;7.85;1.80;;;;;20.20;101022.00;;;;9855500;30;20645;-78
2021/08/09 08:31:07;;;;;;;6.30;1.92;;;;;20.00;101012.00;;;;9826752;30;20712;-78
2021/08/09 08:36:10;;;;;;;4.57;1.92;;;;;20.20;101011.00;;;;9840165;30;20319;-79
2021/08/09 08:41:12;;;;;;;4.70;1.60;;;;;20.60;101002.00;;;;9841305;30;20218;-77
2021/08/09 08:46:17;;;;;;;3.05;1.50;;;;;20.60;101001.00;;;;9840595;30;20644;-79
2021/08/09 08:51:22;;;;;;;4.07;1.80;;;;;20.70;101010.00;;;;9847357;30;20211;-79
2021/08/09 08:56:25;;;;;;;3.35;1.75;;;;;21.30;101020.00;;;;9837749;30;20299;-79
2021/08/09 09:01:37;;;;;;;7.30;1.95;;;;;21.60;101023.00;;;;9853331;30;20208;-78
2021/08/09 09:06:42;;;;;;;3.15;1.98;;;;;21.60;101027.00;;;;9852299;30;20228;-78
2021/08/09 09:11:44;;;;;;;4.15;1.48;;;;;22.00;101023.00;;;;9837326;30;20307;-79
2021/08/09 09:16:48;;;;;;;3.78;1.50;;;;;22.40;101024.00;;;;9867424;30;20205;-78
2021/08/09 09:21:50;;;;;;;4.53;1.90;;;;;22.90;101021.00;;;;9867003;30;20219;-78
2021/08/09 09:26:53;;;;;;;3.20;1.42;;;;;24.30;101023.00;;;;9866511;30;20722;-78
2021/08/09 09:31:55;;;;;;;5.30;1.25;;;;;24.80;101021.00;;;;9844620;30;20217;-78
2021/08/09 09:36:58;;;;;;;9.13;1.70;;;;;24.10;101026.00;;;;9845377;30;20291;-77
2021/08/09 09:42:08;;;;;;;3.58;1.67;;;;;22.70;101032.00;;;;9829639;30;20662;-78
2021/08/09 09:47:27;;;;;;;9.10;2.17;;;;;22.00;101038.00;;;;9831650;30;20255;-77
2021/08/09 09:52:32;;;;;;;5.18;2.25;;;;;21.40;101040.00;;;;9851739;30;20290;-78
2021/08/09 09:57:36;;;;;;;6.45;2.28;;;;;21.60;101054.00;;;;9852012;30;20243;-77
2021/08/09 10:02:40;;;;;;;5.70;2.42;;;;;22.10;101045.00;;;;9862688;30;20266;-77
2021/08/09 10:07:47;;;;;;;5.57;2.00;;;;;23.10;101049.00;;;;9846689;30;20231;-78
2021/08/09 10:12:51;;;;;;;4.40;2.22;;;;;23.00;101046.00;;;;9845068;30;20231;-77
2021/08/09 10:17:55;;;;;;;3.90;1.70;;;;;23.30;101047.00;;;;9874400;30;20711;-77
2021/08/09 10:22:59;;;;;;;6.20;2.05;;;;;23.60;101037.00;;;;9859233;29;20249;-76
2021/08/09 10:28:03;;;;;;;6.65;1.90;;;;;24.40;101040.00;;;;9857613;30;20239;-77
2021/08/09 10:33:10;;;;;;;4.70;1.60;;;;;24.20;101045.00;;;;9829110;30;20303;-76
2021/08/09 10:38:18;;;;;;;3.03;1.83;;;;;25.50;101048.00;;;;9830261;30;20228;-76
2021/08/09 10:43:20;;;;;;;3.50;1.40;;;;;25.80;101042.00;;;;9830584;30;20224;-76
2021/08/09 10:48:44;;;;;;;3.90;1.80;;;;;25.60;101059.00;;;;9792652;30;20235;-76
2021/08/09 10:53:47;;;;;;;5.50;1.92;;;;;24.30;101061.00;;;;9823118;30;20297;-77
2021/08/09 10:58:53;;;;;;;5.50;1.80;;;;;22.90;101061.00;;;;9857182;30;20727;-77
2021/08/09 11:04:06;;;;;;;7.13;2.45;;;;;22.20;101055.00;;;;9842762;30;20235;-78
2021/08/09 11:09:35;;;;;;;2.70;1.77;;;;;23.60;101032.00;;;;9857289;30;20269;-77
2021/08/09 11:20:10;;;;;;;5.18;2.22;;;;;26.10;101036.00;;;;9843883;29;20660;-77
2021/08/09 11:25:30;;;;;;;4.00;2.08;;;;;25.60;101041.00;;;;9831647;30;20303;-77
2021/08/09 11:30:41;;;;;;;2.95;2.03;;;;;26.20;101035.00;;;;9809551;30;20220;-77
2021/08/09 11:35:44;;;;;;;3.00;1.77;;;;;26.40;101019.00;;;;9852223;30;20523;-77
2021/08/09 11:40:48;;;;;;;3.53;2.00;;;;;26.70;101025.00;;;;9842204;30;20219;-77
2021/08/09 11:45:52;;;;;;;3.03;1.67;;;;;26.20;101026.00;;;;9820004;30;20232;-78
2021/08/09 11:50:56;;;;;;;2.38;1.63;;;;;25.60;101008.00;;;;9854062;30;20232;-77
2021/08/09 11:56:20;;;;;;;3.50;1.40;;;;;24.80;101018.00;;;;9825771;30;20292;-77
2021/08/09 12:01:36;;;;;;;6.13;1.60;;;;;24.60;101019.00;;;;9841057;30;20219;-77
2021/08/09 12:06:55;;;;;;;3.15;1.60;;;;;25.30;101014.00;;;;9855893;30;20305;-77
2021/08/09 12:12:06;;;;;;;2.58;1.70;;;;;24.00;101008.00;;;;9856306;30;20192;-77
2021/08/09 12:17:21;;;;;;;3.53;2.25;;;;;23.60;101019.00;;;;9841146;30;20683;-78
2021/08/09 12:22:30;;;;;;;3.22;1.88;;;;;23.40;101015.00;;;;9857314;30;20208;-77
2021/08/09 12:27:31;;;;;;;3.70;1.90;;;;;23.00;101006.00;;;;9869768;30;20232;-77
2021/08/09 12:32:35;;;;;;;3.58;2.40;;;;;22.50;101002.00;;;;9855532;30;20224;-76
2021/08/09 12:37:38;;;;;;;3.72;2.15;;;;;22.00;100996.00;;;;9832743;30;20666;-77
2021/08/09 12:42:42;;;;;;;6.32;1.95;;;;;21.50;100985.00;;;;9840122;30;20204;-77
2021/08/09 12:47:43;;;;;;;4.65;2.00;;;;;20.80;100986.00;;;;9823941;30;20235;-77
2021/08/09 12:52:45;;;;;;;5.30;2.53;;;;;20.60;100975.00;;;;9859653;30;20212;-76
2021/08/09 12:57:52;;;;;;;6.07;2.13;;;;;20.30;101000.00;;;;9868047;29;20250;-76
2021/08/09 13:02:54;;;;;;;5.97;1.75;;;;;20.00;101030.00;;;;9806351;30;20228;-76
2021/08/09 13:07:57;;;;;;;4.65;1.90;;;;;19.40;101047.00;;;;9832435;30;20224;-82
2021/08/09 13:12:59;;;;;;;2.50;1.15;;;;;17.50;101035.00;;;;9864125;29;20222;-84
2021/08/09 13:18:02;;;;;;;1.08;0.73;;;;;17.30;101083.00;;;;9855391;30;20283;-78
2021/08/09 13:23:04;;;;;;;5.22;1.20;;;;;18.40;101091.00;;;;9826807;30;20231;-76
2021/08/09 13:28:06;;;;;;;4.47;1.65;;;;;19.40;101094.00;;;;9866863;30;20300;-76
2021/08/09 13:33:08;;;;;;;3.60;1.92;;;;;20.10;101096.00;;;;9837431;30;20755;-76
2021/08/09 13:38:10;;;;;;;6.03;2.88;;;;;20.50;101093.00;;;;9818686;29;20292;-76
2021/08/09 13:43:11;;;;;;;4.50;2.47;;;;;20.80;101082.00;;;;9847939;30;20262;-76
2021/08/09 13:48:13;;;;;;;2.47;2.22;;;;;21.80;101075.00;;;;9824080;30;20578;-76
2021/08/09 13:53:15;;;;;;;3.53;2.40;;;;;23.10;101073.00;;;;9834717;30;20247;-76
2021/08/09 13:58:17;;;;;;;3.92;2.00;;;;;23.10;101070.00;;;;9876176;29;20215;-76
2021/08/09 14:03:19;;;;;;;2.50;1.85;;;;;23.00;101053.00;;;;9819066;30;20410;-76
2021/08/09 14:08:21;;;;;;;2.95;1.95;;;;;23.40;101057.00;;;;9854052;30;20335;-76
2021/08/09 14:13:23;;;;;;;2.10;1.50;;;;;24.00;101056.00;;;;9868543;29;20204;-76
2021/08/09 14:18:25;;;;;;;3.00;1.80;;;;;24.20;101042.00;;;;9818687;30;20643;-75
2021/08/09 14:23:29;;;;;;;5.22;2.03;;;;;26.00;101035.00;;;;9852480;29;20261;-75
2021/08/09 14:28:32;;;;;;;4.20;1.77;;;;;25.80;101049.00;;;;9889894;29;20795;-76
2021/08/09 14:33:34;;;;;;;4.97;1.90;;;;;25.20;101046.00;;;;9876881;29;20196;-76
2021/08/09 14:38:39;;;;;;;2.60;1.70;;;;;24.30;101036.00;;;;9857956;30;20275;-75
2021/08/09 14:43:42;;;;;;;6.93;1.60;;;;;26.30;101040.00;;;;9852316;29;20291;-76
2021/08/09 14:48:46;;;;;;;2.33;1.55;;;;;28.60;101025.00;;;;9858899;30;20213;-75
2021/08/09 14:53:48;;;;;;;1.90;1.25;;;;;28.90;101024.00;;;;9868261;29;20212;-75
2021/08/09 14:58:54;;;;;;;4.40;1.75;;;;;29.60;101034.00;;;;9838447;30;20293;-75
2021/08/09 15:03:56;;;;;;;2.30;1.40;;;;;29.30;101027.00;;;;9802755;30;20209;-75
2021/08/09 15:09:21;;;;;;;2.03;1.70;;;;;27.00;101038.00;;;;9853000;29;20314;-76
2021/08/09 15:14:23;;;;;;;2.15;1.60;;;;;26.10;101013.00;;;;9837666;30;20273;-75
2021/08/09 15:19:26;;;;;;;2.55;1.30;;;;;27.70;101020.00;;;;9863474;29;20234;-76
2021/08/09 15:24:28;;;;;;;4.03;1.60;;;;;24.40;101012.00;;;;9883541;29;20231;-76
2021/08/09 15:29:30;;;;;;;2.20;1.25;;;;;22.70;101015.00;;;;9853222;29;20823;-76
2021/08/09 15:34:32;;;;;;;2.75;1.42;;;;;25.20;101002.00;;;;9865372;30;20236;-76
2021/08/09 15:39:34;;;;;;;2.28;1.75;;;;;23.00;101010.00;;;;9871236;29;20265;-76
2021/08/09 15:44:36;;;;;;;2.45;1.98;;;;;22.00;101027.00;;;;9898207;29;20231;-76
2021/08/09 15:49:38;;;;;;;4.57;1.90;;;;;21.80;101010.00;;;;9864749;29;20287;-76
2021/08/09 15:54:42;;;;;;;2.78;1.65;;;;;23.00;101019.00;;;;9827356;30;20219;-75
2021/08/09 15:59:44;;;;;;;6.50;1.80;;;;;22.30;101020.00;;;;9836451;30;20213;-75
2021/08/09 16:04:47;;;;;;;2.28;1.95;;;;;22.00;101027.00;;;;9864778;29;20262;-76
2021/08/09 16:09:48;;;;;;;3.40;1.80;;;;;21.90;101022.00;;;;9863084;30;20232;-75
2021/08/09 16:14:50;;;;;;;3.17;1.73;;;;;21.80;101031.00;;;;9850846;30;20299;-76
2021/08/09 16:19:52;;;;;;;4.60;2.38;;;;;21.30;101027.00;;;;9829017;29;20231;-75
2021/08/09 16:24:55;;;;;;;3.17;2.30;;;;;21.00;101024.00;;;;9832406;29;20768;-76
2021/08/09 16:29:57;;;;;;;3.53;2.08;;;;;20.40;101014.00;;;;9885243;29;20208;-77
2021/08/09 16:35:01;;;;;;;4.15;2.53;;;;;19.70;101009.00;;;;9855458;30;20208;-77
2021/08/09 16:40:04;;;;;;;5.85;2.65;;;;;19.40;100991.00;;;;9842590;30;20220;-77
2021/08/09 16:45:07;;;;;;;3.92;3.10;;;;;19.40;101000.00;;;;9832351;30;20241;-76
2021/08/09 16:50:09;;;;;;;4.57;2.83;;;;;19.50;100988.00;;;;9816750;30;20573;-77
2021/08/09 16:55:10;;;;;;;4.68;2.60;;;;;19.60;101002.00;;;;9863106;29;20280;-76
2021/08/09 17:00:13;;;;;;;3.75;2.38;;;;;19.40;101019.00;;;;9905302;29;20242;-76
2021/08/09 17:05:16;;;;;;;4.10;2.45;;;;;19.00;101016.00;;;;9876367;29;20223;-76
2021/08/09 17:10:20;;;;;;;3.08;2.40;;;;;18.90;101019.00;;;;9861960;29;20200;-76
2021/08/09 17:15:24;;;;;;;2.97;2.40;;;;;18.90;101014.00;;;;9896963;29;20413;-76
2021/08/09 17:20:26;;;;;;;5.78;2.60;;;;;19.40;101031.00;;;;9912220;29;20208;-76
2021/08/09 17:25:28;;;;;;;4.00;2.60;;;;;19.90;101038.00;;;;9858243;30;20231;-76
2021/08/09 17:30:30;;;;;;;4.82;2.60;;;;;19.90;101051.00;;;;9845818;30;20209;-76
2021/08/09 17:35:32;;;;;;;3.35;2.15;;;;;19.40;101044.00;;;;9859782;30;20231;-75
2021/08/09 17:40:34;;;;;;;3.28;2.53;;;;;19.10;101033.00;;;;9845327;30;20678;-76
2021/08/09 17:45:37;;;;;;;4.57;2.40;;;;;18.70;101040.00;;;;9874452;30;20224;-76
2021/08/09 17:50:39;;;;;;;4.97;2.60;;;;;18.80;101042.00;;;;9874370;29;20217;-75
2021/08/09 17:55:41;;;;;;;3.83;1.80;;;;;18.70;101046.00;;;;9817171;30;20792;-75
2021/08/09 18:00:44;;;;;;;3.13;1.85;;;;;18.60;101058.00;;;;9792340;30;20715;-75
2021/08/09 18:05:46;;;;;;;4.05;2.10;;;;;18.30;101061.00;;;;9834533;30;20224;-76
2021/08/09 18:10:51;;;;;;;4.13;2.28;;;;;18.10;101045.00;;;;9843768;30;20216;-76
2021/08/09 18:15:53;;;;;;;2.55;1.83;;;;;17.90;101031.00;;;;9873478;29;20301;-75
2021/08/09 18:20:55;;;;;;;3.88;2.03;;;;;17.70;101037.00;;;;9806473;30;20854;-76
2021/08/09 18:25:57;;;;;;;3.35;1.90;;;;;17.40;101040.00;;;;9820397;30;20233;-74
2021/08/09 18:30:59;;;;;;;2.75;1.90;;;;;17.20;101026.00;;;;9863772;30;20212;-76
2021/08/09 18:36:01;;;;;;;5.57;2.08;;;;;17.10;101033.00;;;;9856574;29;20319;-74
2021/08/09 18:41:04;;;;;;;2.03;1.77;;;;;16.90;101029.00;;;;9856829;30;20687;-76
2021/08/09 18:46:07;;;;;;;2.83;1.90;;;;;16.80;101042.00;;;;9856491;30;20232;-75
2021/08/09 18:51:09;;;;;;;3.25;2.30;;;;;16.80;101044.00;;;;9857702;30;20215;-78
2021/08/09 18:56:11;;;;;;;3.30;2.03;;;;;16.80;101047.00;;;;9856855;30;20216;-75
2021/08/09 19:01:12;;;;;;;5.50;2.58;;;;;16.80;101076.00;;;;9870914;30;20669;-76
2021/08/09 19:06:15;;;;;;;4.05;2.33;;;;;16.80;101071.00;;;;9855627;30;20239;-76
2021/08/09 19:11:17;;;;;;;4.15;2.40;;;;;16.80;101083.00;;;;9843186;30;20207;-77
2021/08/09 19:16:19;;;;;;;3.72;2.60;;;;;16.60;101084.00;;;;9858179;30;20236;-78
2021/08/09 19:21:21;;;;;;;5.25;3.92;;;;;16.40;101082.00;;;;9873460;30;20220;-77
2021/08/09 19:26:22;;;;;;;6.68;3.22;;;;;16.30;101096.00;;;;9828637;30;20592;-77
2021/08/09 19:31:25;;;;;;;6.75;3.65;;;;;16.20;101085.00;;;;9858081;30;20212;-76
2021/08/09 19:36:27;;;;;;;3.27;2.80;;;;;16.20;101095.00;;;;9841372;30;20231;-77
2021/08/09 19:41:29;;;;;;;3.40;2.63;;;;;16.20;101099.00;;;;9856369;30;20607;-76
2021/08/09 19:46:31;;;;;;;5.35;3.20;;;;;16.20;101107.00;;;;9856133;30;20647;-76
2021/08/09 19:51:33;;;;;;;5.00;2.90;;;;;16.10;101103.00;;;;9855720;30;20857;-76
2021/08/09 19:56:35;;;;;;;4.93;3.23;;;;;16.00;101106.00;;;;9855671;30;20200;-76
2021/08/09 20:01:37;;;;;;;4.37;3.17;;;;;15.90;101108.00;;;;9869399;30;20688;-76
2021/08/09 20:06:39;;;;;;;5.30;2.80;;;;;15.80;101129.00;;;;9839761;29;20608;-75
2021/08/09 20:11:40;;;;;;;5.10;3.03;;;;;15.70;101135.00;;;;9840260;30;20238;-76
2021/08/09 20:16:42;;;;;;;4.27;3.53;;;;;15.50;101145.00;;;;9854367;30;20220;-77
2021/08/09 20:21:45;;;;;;;7.07;4.23;;;;;15.40;101128.00;;;;9891290;29;20853;-76
2021/08/09 20:26:47;;;;;;;10.17;4.77;;;;;15.40;101128.00;;;;9861795;29;20231;-76
2021/08/09 20:31:49;;;;;;;6.33;4.13;;;;;15.30;101132.00;;;;9876058;29;20792;-76
2021/08/09 20:36:51;;;;;;;5.03;3.93;;;;;15.30;101132.00;;;;9876112;29;20231;-76
2021/08/09 20:41:53;;;;;;;8.40;4.40;;;;;15.20;101134.00;;;;9890469;29;20230;-76
2021/08/09 20:46:55;;;;;;;5.47;3.67;;;;;15.10;101129.00;;;;9875371;29;20222;-76
2021/08/09 20:51:57;;;;;;;4.57;3.77;;;;;15.10;101140.00;;;;9841550;30;20208;-76
2021/08/09 20:56:59;;;;;;;5.27;4.17;;;;;15.00;101133.00;;;;9838870;30;20220;-75
2021/08/09 21:02:01;;;;;;;7.63;4.70;;;;;15.00;101132.00;;;;9853753;30;20231;-75
2021/08/09 21:07:04;;;;;;;7.40;4.10;;;;;15.00;101134.00;;;;9868048;30;20693;-75
2021/08/09 21:12:10;;;;;;;5.57;5.00;;;;;15.00;101135.00;;;;9853518;30;20272;-75
2021/08/09 21:17:12;;;;;;;7.93;4.60;;;;;14.90;101134.00;;;;9853484;30;20374;-76
2021/08/09 21:22:14;;;;;;;7.50;5.07;;;;;14.90;101125.00;;;;9853421;30;20207;-76
2021/08/09 21:27:16;;;;;;;12.60;5.03;;;;;14.90;101130.00;;;;9852523;30;20693;-76
2021/08/09 21:32:18;;;;;;;8.03;5.03;;;;;14.90;101127.00;;;;9853469;30;20200;-76
2021/08/09 21:37:20;;;;;;;8.90;5.77;;;;;14.80;101132.00;;;;9866560;30;20231;-76
2021/08/09 21:42:22;;;;;;;11.23;5.97;;;;;14.70;101136.00;;;;9869183;30;20200;-79
2021/08/09 21:47:23;;;;;;;8.67;6.20;;;;;14.70;101145.00;;;;9867595;30;20236;-76
2021/08/09 21:52:25;;;;;;;10.93;7.00;;;;;14.60;101152.00;;;;9870558;30;20688;-77
2021/08/09 21:57:27;;;;;;;11.13;6.63;;;;;14.60;101153.00;;;;9819543;30;20277;-77
2021/08/09 22:02:29;;;;;;;11.90;6.53;;;;;14.60;101153.00;;;;9880810;29;20241;-76
2021/08/09 22:07:31;;;;;;;10.40;6.23;;;;;14.60;101161.00;;;;9880626;29;20238;-77
2021/08/09 22:12:37;;;;;;;9.67;6.23;;;;;14.60;101154.00;;;;9880365;29;20625;-77
2021/08/09 22:17:40;;;;;;;8.40;6.33;;;;;14.50;101161.00;;;;9865447;29;20214;-77
2021/08/09 22:22:42;;;;;;;11.37;5.80;;;;;14.50;101148.00;;;;9880650;29;20208;-77
2021/08/09 22:27:45;;;;;;;9.33;6.33;;;;;14.40;101144.00;;;;9879802;29;20235;-77
2021/08/09 22:32:47;;;;;;;11.00;5.90;;;;;14.40;101136.00;;;;9865521;29;20567;-77
2021/08/09 22:37:49;;;;;;;11.77;6.30;;;;;14.40;101141.00;;;;9894628;29;20235;-76
2021/08/09 22:42:51;;;;;;;9.60;6.50;;;;;14.40;101139.00;;;;9894133;29;20668;-75
2021/08/09 22:47:53;;;;;;;10.80;6.07;;;;;14.40;101115.00;;;;9894562;29;20626;-77
2021/08/09 22:52:55;;;;;;;9.33;5.80;;;;;14.40;101115.00;;;;9879982;29;20694;-76
2021/08/09 22:57:57;;;;;;;10.93;5.20;;;;;14.40;101118.00;;;;9879816;29;20215;-75
2021/08/09 23:02:59;;;;;;;10.27;5.73;;;;;14.40;101122.00;;;;9879741;29;20200;-77
2021/08/09 23:08:02;;;;;;;8.93;5.47;;;;;14.40;101130.00;;;;9879609;29;20695;-76
2021/08/09 23:13:04;;;;;;;10.07;5.90;;;;;14.40;101100.00;;;;9879449;29;20207;-76
2021/08/09 23:18:06;;;;;;;10.87;5.80;;;;;14.50;101103.00;;;;9880176;29;20195;-76
2021/08/09 23:23:10;;;;;;;11.30;4.97;;;;;14.50;101124.00;;;;9874533;29;20224;-76
2021/08/09 23:28:12;;;;;;;7.80;5.03;;;;;14.50;101112.00;;;;9842868;30;20232;-76
2021/08/09 23:33:16;;;;;;;13.53;5.67;;;;;14.60;101121.00;;;;9856516;30;20200;-77
2021/08/09 23:38:18;;;;;;;12.03;5.83;;;;;14.70;101114.00;;;;9855999;30;20696;-77
2021/08/09 23:43:20;;;;;;;11.13;5.53;;;;;14.80;101116.00;;;;9855714;30;20201;-76
2021/08/09 23:48:22;;;;;;;7.30;5.40;;;;;14.90;101120.00;;;;9855210;30;20228;-77
2021/08/09 23:53:24;;;;;;;13.00;6.20;;;;;14.90;101127.00;;;;9842268;30;20204;-76
2021/08/09 23:58:27;;;;;;;9.47;5.77;;;;;15.00;101143.00;;;;9871612;30;20204;-83
